Time;durP1;ratioP1;P1;durP2;ratioP2;P2;SDS_P1;SDS_P2;PMS_P1;PMS_P2;Temp;Humidity;BMP_temperature;BMP_pressure;BME280_temperature;BME280_humidity;BME280_pressure;Samples;Min_cycle;Max_cycle;Signal;HPM_P1;HPM_P2
2023/04/15 00:02:17;;;;;;;2.22;0.80;;;;;;;19.88;36.08;100602.09;16123452;19;129100;-45
2023/04/15 00:07:40;;;;;;;2.73;0.90;;;;;;;19.84;35.88;100596.22;16119484;19;131143;-47
2023/04/15 00:13:03;;;;;;;1.02;0.45;;;;;;;19.83;35.94;100594.53;16120369;19;131047;-43
2023/04/15 00:18:25;;;;;;;5.78;0.90;;;;;;;19.82;36.15;100603.97;16120688;19;130560;-44
2023/04/15 00:23:51;;;;;;;2.10;0.70;;;;;;;19.78;36.22;100597.28;16122621;19;132900;-42
2023/04/15 00:29:13;;;;;;;1.27;0.60;;;;;;;19.77;35.93;100601.16;16120451;19;130913;-44
2023/04/15 00:34:35;;;;;;;3.53;1.10;;;;;;;19.75;35.83;100606.97;16119687;19;129527;-43
2023/04/15 00:39:57;;;;;;;1.55;0.70;;;;;;;19.74;35.92;100604.44;16118888;19;129139;-42
2023/04/15 00:45:19;;;;;;;3.05;0.68;;;;;;;19.71;36.00;100593.84;16120046;19;129259;-43
2023/04/15 00:50:41;;;;;;;4.85;0.50;;;;;;;19.68;36.16;100595.22;16123649;19;130635;-43
2023/04/15 00:56:03;;;;;;;1.60;0.55;;;;;;;19.67;36.24;100601.88;16119479;19;129674;-45
2023/04/15 01:01:25;;;;;;;1.52;0.60;;;;;;;19.64;36.00;100592.13;16118530;19;129909;-42
2023/04/15 01:06:47;;;;;;;1.45;0.60;;;;;;;19.64;36.35;100602.38;16117516;19;129869;-45
2023/04/15 01:12:11;;;;;;;1.63;0.60;;;;;;;19.61;36.21;100603.75;16116348;19;130275;-43
2023/04/15 01:17:33;;;;;;;0.57;0.40;;;;;;;19.60;36.08;100601.25;16112965;19;129509;-44
2023/04/15 01:22:55;;;;;;;1.00;0.65;;;;;;;19.57;35.93;100599.81;16116931;19;129390;-42
2023/04/15 01:28:17;;;;;;;0.82;0.50;;;;;;;19.57;35.87;100593.44;16113961;19;129505;-45
2023/04/15 01:33:41;;;;;;;1.42;0.60;;;;;;;19.54;36.04;100589.25;16116041;19;130711;-43
2023/04/15 01:39:04;;;;;;;1.85;0.80;;;;;;;19.53;36.11;100587.59;16117691;19;130159;-44
2023/04/15 01:44:26;;;;;;;1.75;0.70;;;;;;;19.51;35.81;100589.78;16114581;19;129755;-46
2023/04/15 01:49:48;;;;;;;1.52;0.70;;;;;;;19.49;35.74;100590.03;16114214;19;130846;-45
2023/04/15 01:55:12;;;;;;;1.42;0.60;;;;;;;19.48;35.90;100593.06;16113555;19;129974;-44
2023/04/15 02:00:34;;;;;;;1.98;0.57;;;;;;;19.46;35.97;100601.66;16114497;19;129902;-41
2023/04/15 02:05:56;;;;;;;2.25;0.60;;;;;;;19.45;35.94;100611.06;16113104;19;130181;-43
2023/04/15 02:11:18;;;;;;;1.15;0.60;;;;;;;19.43;35.77;100610.50;16110630;19;130013;-42
2023/04/15 02:16:40;;;;;;;1.23;0.40;;;;;;;19.42;36.17;100622.69;16113791;19;129291;-41
2023/04/15 02:22:02;;;;;;;1.40;0.43;;;;;;;19.42;35.99;100621.84;16124900;19;130267;-45
2023/04/15 02:27:25;;;;;;;1.88;0.50;;;;;;;19.42;35.90;100621.84;16129839;19;129339;-42
2023/04/15 02:32:47;;;;;;;0.90;0.50;;;;;;;19.40;36.40;100629.59;16127309;19;129215;-45
2023/04/15 02:38:09;;;;;;;1.45;0.55;;;;;;;19.38;36.25;100632.63;16130217;19;130543;-45
2023/04/15 02:43:31;;;;;;;0.80;0.40;;;;;;;19.36;36.16;100632.88;16127098;19;131500;-46
2023/04/15 02:48:53;;;;;;;0.55;0.45;;;;;;;19.34;36.19;100632.28;16127719;19;131412;-46
2023/04/15 02:54:16;;;;;;;1.40;0.70;;;;;;;19.33;36.22;100641.72;16126568;19;129334;-45
2023/04/15 02:59:38;;;;;;;0.50;0.40;;;;;;;19.32;35.92;100650.31;16127609;19;131346;-44
2023/04/15 03:05:00;;;;;;;0.82;0.40;;;;;;;19.30;35.98;100653.34;16126366;19;129421;-46
2023/04/15 03:10:22;;;;;;;1.40;0.52;;;;;;;19.30;35.85;100646.94;16127897;19;130930;-44
2023/04/15 03:15:47;;;;;;;1.20;0.70;;;;;;;19.29;35.51;100650.81;16124026;19;130906;-44
2023/04/15 03:21:09;;;;;;;0.95;0.70;;;;;;;19.26;35.96;100657.72;16127159;19;129474;-44
2023/04/15 03:26:31;;;;;;;2.10;0.88;;;;;;;19.24;36.09;100654.34;16124837;19;130367;-46
2023/04/15 03:31:53;;;;;;;0.80;0.40;;;;;;;19.24;35.82;100670.19;16123308;19;131050;-48
2023/04/15 03:37:14;;;;;;;0.98;0.60;;;;;;;19.23;35.84;100672.09;16126117;19;129796;-44
2023/04/15 03:42:36;;;;;;;1.33;0.70;;;;;;;19.21;36.02;100663.19;16124384;19;131053;-47
2023/04/15 03:47:58;;;;;;;1.15;0.50;;;;;;;19.20;35.95;100678.97;16124145;19;130649;-44
2023/04/15 03:53:37;;;;;;;1.10;0.65;;;;;;;19.18;35.90;100692.25;16122345;19;130948;-44
2023/04/15 03:58:59;;;;;;;2.40;0.80;;;;;;;19.17;35.79;100695.28;16121879;19;130727;-44
2023/04/15 04:04:21;;;;;;;0.75;0.60;;;;;;;19.15;35.59;100701.06;16123529;19;129384;-47
2023/04/15 04:09:43;;;;;;;1.63;0.80;;;;;;;19.14;35.95;100696.63;16123297;19;129465;-43
2023/04/15 04:15:08;;;;;;;3.08;0.90;;;;;;;19.12;35.59;100707.16;16125594;19;134733;-48
2023/04/15 04:20:30;;;;;;;2.35;0.90;;;;;;;19.11;35.53;100716.56;16119513;19;129214;-46
2023/04/15 04:25:52;;;;;;;1.27;0.80;;;;;;;19.09;35.15;100724.28;16122436;19;129450;-47
2023/04/15 04:31:14;;;;;;;2.28;1.00;;;;;;;19.08;35.60;100719.84;16120664;19;129830;-46
2023/04/15 04:36:36;;;;;;;1.70;1.02;;;;;;;19.06;35.31;100722.88;16119986;19;130684;-44
2023/04/15 04:41:58;;;;;;;1.35;0.88;;;;;;;19.05;35.50;100737.81;16118921;19;130661;-45
2023/04/15 04:47:20;;;;;;;2.67;1.20;;;;;;;19.04;35.06;100750.00;16119572;19;130755;-45
2023/04/15 04:52:42;;;;;;;2.90;1.10;;;;;;;19.03;35.09;100753.88;16120154;19;132581;-46
2023/04/15 04:58:04;;;;;;;1.85;1.10;;;;;;;19.01;34.98;100755.22;16116960;19;130575;-45
2023/04/15 05:03:26;;;;;;;2.10;1.10;;;;;;;19.00;35.13;100757.13;16119529;19;129519;-44
2023/04/15 05:08:48;;;;;;;1.55;0.80;;;;;;;18.98;34.89;100767.63;16118797;19;130632;-46
2023/04/15 05:14:09;;;;;;;2.30;0.90;;;;;;;18.97;34.83;100785.34;16118765;19;132327;-47
2023/04/15 05:19:31;;;;;;;2.25;1.00;;;;;;;18.95;34.98;100793.13;16116849;19;129910;-53
2023/04/15 05:24:53;;;;;;;2.45;1.00;;;;;;;18.95;34.74;100806.97;16115635;19;129562;-43
2023/04/15 05:30:15;;;;;;;1.58;0.95;;;;;;;18.93;34.97;100825.78;16117207;19;129326;-43
2023/04/15 05:35:37;;;;;;;4.13;1.02;;;;;;;18.90;35.47;100821.56;16107897;19;131084;-47
2023/04/15 05:41:00;;;;;;;4.38;1.00;;;;;;;18.97;35.71;100831.66;16116295;19;130385;-45
2023/04/15 05:46:22;;;;;;;3.03;1.10;;;;;;;19.15;35.37;100844.44;16117183;19;134562;-48
2023/04/15 05:51:44;;;;;;;9.00;1.42;;;;;;;19.38;35.54;100843.47;16111011;19;129255;-47
2023/04/15 05:57:07;;;;;;;2.00;0.75;;;;;;;19.57;35.05;100857.06;16113559;19;131897;-44
2023/04/15 06:02:28;;;;;;;3.55;1.00;;;;;;;19.71;34.83;100874.19;16113619;19;129554;-44
2023/04/15 06:07:51;;;;;;;2.70;0.90;;;;;;;19.76;34.37;100875.09;16115427;19;129714;-44
2023/04/15 06:13:13;;;;;;;2.97;1.15;;;;;;;19.81;34.47;100882.69;16113806;19;132326;-46
2023/04/15 06:18:35;;;;;;;4.25;1.00;;;;;;;19.83;34.35;100889.66;16110766;19;130419;-46
2023/04/15 06:24:00;;;;;;;6.45;1.23;;;;;;;19.87;34.46;100900.25;16112807;19;129481;-45
2023/04/15 06:29:22;;;;;;;2.35;0.82;;;;;;;19.91;34.43;100912.50;16113642;19;133635;-46
2023/04/15 06:34:43;;;;;;;2.15;0.95;;;;;;;19.96;34.05;100924.53;16076459;19;131103;-45
2023/04/15 06:40:07;;;;;;;4.30;1.10;;;;;;;20.01;33.81;100929.34;16085387;19;131089;-45
2023/04/15 06:45:30;;;;;;;5.18;1.50;;;;;;;20.05;34.31;100938.03;16099989;19;131204;-46
2023/04/15 06:50:52;;;;;;;5.18;1.80;;;;;;;20.12;34.07;100941.44;16107959;19;130726;-46
2023/04/15 06:56:14;;;;;;;3.85;1.48;;;;;;;20.14;33.96;100944.81;16103725;19;130746;-48
2023/04/15 07:01:37;;;;;;;4.65;1.50;;;;;;;20.18;33.47;100948.75;16103719;19;131425;-46
2023/04/15 07:07:01;;;;;;;6.72;2.03;;;;;;;20.22;33.73;100957.41;16113649;19;129386;-44
2023/04/15 07:12:23;;;;;;;3.15;1.30;;;;;;;20.22;33.68;100962.97;16125512;19;130091;-44
2023/04/15 07:17:45;;;;;;;5.13;1.70;;;;;;;20.26;33.21;100966.91;16123576;19;130450;-47
2023/04/15 07:23:07;;;;;;;4.53;1.70;;;;;;;20.29;33.58;100969.16;16121301;19;133175;-47
2023/04/15 07:28:29;;;;;;;5.45;1.48;;;;;;;20.32;33.23;100973.38;16119581;19;129600;-48
2023/04/15 07:33:51;;;;;;;3.65;1.40;;;;;;;20.35;33.66;100984.84;16125420;19;129867;-46
2023/04/15 07:39:13;;;;;;;3.75;1.27;;;;;;;20.37;33.39;100988.16;16115134;19;130362;-45
2023/04/15 07:44:35;;;;;;;4.90;1.27;;;;;;;20.40;33.40;100992.38;16119551;19;130491;-45
2023/04/15 07:49:57;;;;;;;5.03;1.30;;;;;;;20.41;33.28;101000.47;16113568;19;131701;-47
2023/04/15 07:55:21;;;;;;;5.75;1.45;;;;;;;20.43;33.07;101019.66;16115890;19;130369;-46
2023/04/15 08:00:43;;;;;;;5.73;1.50;;;;;;;20.41;33.14;101019.09;16115806;19;130592;-47
2023/04/15 08:06:05;;;;;;;15.15;1.83;;;;;;;20.39;32.95;101036.00;16127366;19;130264;-50
2023/04/15 08:11:27;;;;;;;7.90;1.98;;;;;;;20.39;32.77;101052.66;16121667;19;131282;-47
2023/04/15 08:16:49;;;;;;;12.60;2.22;;;;;;;20.40;32.54;101064.63;16120270;19;130107;-48
2023/04/15 08:22:11;;;;;;;11.15;1.80;;;;;;;20.39;32.41;101072.13;16112634;19;130374;-48
2023/04/15 08:27:38;;;;;;;7.85;1.83;;;;;;;20.35;32.39;101075.66;16110374;19;129747;-46
2023/04/15 08:33:00;;;;;;;6.07;1.77;;;;;;;20.34;32.21;101074.84;16119084;19;129510;-45
2023/04/15 08:38:22;;;;;;;8.98;2.10;;;;;;;20.35;32.29;101090.41;16120729;19;131168;-49
2023/04/15 08:43:52;;;;;;;6.78;1.85;;;;;;;20.35;32.11;101115.41;16120049;19;131316;-47
2023/04/15 08:49:16;;;;;;;4.38;2.00;;;;;;;20.34;32.41;101124.00;16116668;19;130400;-47
2023/04/15 08:54:38;;;;;;;5.40;1.50;;;;;;;20.31;31.90;101132.84;16117851;19;129675;-46
2023/04/15 09:00:02;;;;;;;3.00;1.50;;;;;;;20.29;32.30;101146.97;16114277;19;131031;-51
2023/04/15 09:05:26;;;;;;;5.25;1.50;;;;;;;20.27;32.27;101154.72;16111004;19;130770;-50
2023/04/15 09:10:48;;;;;;;4.38;1.50;;;;;;;20.23;32.14;101162.72;16109647;19;129723;-46
2023/04/15 09:16:10;;;;;;;3.90;1.42;;;;;;;20.22;31.99;101169.38;16110716;19;130222;-48
2023/04/15 09:21:33;;;;;;;4.07;1.83;;;;;;;20.19;32.22;101169.03;16112638;19;130469;-45
2023/04/15 09:26:57;;;;;;;2.55;1.20;;;;;;;20.18;31.88;101186.78;16114727;19;130222;-51
2023/04/15 09:32:22;;;;;;;3.53;1.65;;;;;;;20.13;31.67;101195.88;16113317;19;131156;-48
2023/04/15 09:37:45;;;;;;;5.55;1.00;;;;;;;20.10;31.65;101216.66;16106872;19;130238;-44
2023/04/15 09:43:08;;;;;;;6.05;1.25;;;;;;;20.09;31.56;101211.34;16108077;19;133259;-46
2023/04/15 09:48:30;;;;;;;2.33;1.15;;;;;;;20.09;31.85;101220.53;16101989;19;131813;-47
2023/04/15 09:53:55;;;;;;;10.27;1.45;;;;;;;20.08;31.78;101229.97;16115372;19;130999;-45
2023/04/15 09:59:17;;;;;;;5.17;1.20;;;;;;;20.06;32.11;101234.09;16111448;19;131411;-46
2023/04/15 10:04:41;;;;;;;4.47;1.70;;;;;;;20.05;32.00;101237.94;16112521;19;130055;-47
2023/04/15 10:10:04;;;;;;;9.00;1.42;;;;;;;20.03;32.21;101248.47;16114252;19;130200;-46
2023/04/15 10:15:28;;;;;;;7.40;1.55;;;;;;;19.99;31.73;101248.94;16112258;19;130309;-44
2023/04/15 10:20:51;;;;;;;9.20;2.10;;;;;;;19.95;31.90;101252.44;16113433;19;129999;-47
2023/04/15 10:26:19;;;;;;;5.50;1.45;;;;;;;19.92;31.92;101253.78;16109713;19;129751;-45
2023/04/15 10:31:41;;;;;;;5.53;1.55;;;;;;;19.89;31.61;101264.53;16107586;19;130259;-44
2023/04/15 10:37:03;;;;;;;6.15;1.42;;;;;;;19.84;31.97;101265.25;16108594;19;131494;-47
2023/04/15 10:42:33;;;;;;;11.00;1.48;;;;;;;19.83;31.62;101277.47;16119671;19;129643;-46
2023/04/15 10:47:56;;;;;;;7.55;1.40;;;;;;;19.78;31.39;101275.41;16127009;19;129802;-44
2023/04/15 10:53:28;;;;;;;4.63;1.95;;;;;;;19.75;31.53;101294.50;16124426;19;129584;-49
2023/04/15 10:58:50;;;;;;;5.15;1.17;;;;;;;19.72;31.45;101298.63;16112888;19;129480;-47
2023/04/15 11:04:12;;;;;;;6.47;1.20;;;;;;;19.66;31.17;101292.13;16121922;19;129492;-47
2023/04/15 11:09:34;;;;;;;3.58;1.20;;;;;;;19.67;31.53;101291.03;16122483;19;130283;-47
2023/04/15 11:14:56;;;;;;;4.05;1.13;;;;;;;19.68;31.26;101302.97;16123240;19;129618;-48
2023/04/15 11:20:19;;;;;;;3.40;0.80;;;;;;;19.72;31.50;101314.44;16121270;19;129692;-47
2023/04/15 11:25:42;;;;;;;4.55;0.82;;;;;;;19.71;31.36;101312.72;16119488;19;130326;-48
2023/04/15 11:31:07;;;;;;;2.85;0.90;;;;;;;19.68;31.23;101311.31;16123855;19;130859;-46
2023/04/15 11:36:30;;;;;;;2.75;0.77;;;;;;;19.64;31.19;101318.41;16122879;19;131132;-47
2023/04/15 11:41:52;;;;;;;5.40;1.25;;;;;;;19.58;30.60;101314.69;16116542;19;131224;-47
2023/04/15 11:47:23;;;;;;;2.95;1.10;;;;;;;19.56;30.79;101333.53;16118420;19;130633;-48
2023/04/15 11:52:56;;;;;;;5.82;0.93;;;;;;;19.55;30.31;101339.31;16118787;19;129822;-47
2023/04/15 11:58:22;;;;;;;6.15;0.90;;;;;;;19.52;30.72;101337.88;16113761;19;130582;-48
2023/04/15 12:03:45;;;;;;;9.23;0.95;;;;;;;19.49;30.26;101346.66;16111560;19;129508;-46
2023/04/15 12:09:12;;;;;;;2.42;0.90;;;;;;;19.47;29.86;101359.94;16112168;19;131460;-47
2023/04/15 12:14:34;;;;;;;1.33;0.57;;;;;;;19.47;30.34;101362.72;16115502;19;129584;-47
2023/04/15 12:19:56;;;;;;;8.70;0.70;;;;;;;19.45;30.22;101360.19;16117992;19;130882;-47
2023/04/15 12:25:17;;;;;;;5.88;0.82;;;;;;;19.46;30.41;101389.63;16119660;19;130765;-44
2023/04/15 12:30:50;;;;;;;3.58;0.60;;;;;;;19.48;30.05;101387.47;16117943;19;131103;-47
2023/04/15 12:36:12;;;;;;;4.07;0.70;;;;;;;19.43;29.61;101397.59;16121367;19;129923;-47
2023/04/15 12:41:33;;;;;;;2.90;0.70;;;;;;;19.40;29.48;101395.28;16116785;19;130488;-45
2023/04/15 12:46:56;;;;;;;5.32;0.75;;;;;;;19.36;29.41;101414.34;16116761;19;131703;-45
2023/04/15 12:52:18;;;;;;;5.00;0.60;;;;;;;19.32;28.76;101427.84;16116668;19;129451;-48
2023/04/15 12:57:40;;;;;;;2.42;0.73;;;;;;;19.29;28.90;101433.88;16110922;19;131451;-46
2023/04/15 13:03:02;;;;;;;3.38;0.70;;;;;;;19.26;28.62;101434.34;16112404;19;130241;-48
2023/04/15 13:08:27;;;;;;;;;;;;;;;19.20;28.74;101435.28;16115856;19;135770;-45
2023/04/15 13:13:49;;;;;;;2.45;0.70;;;;;;;19.21;28.90;101435.06;16114471;19;130895;-44
2023/04/15 13:19:11;;;;;;;1.95;0.70;;;;;;;19.20;28.71;101435.28;16115017;19;129606;-45
2023/04/15 13:24:32;;;;;;;2.53;0.70;;;;;;;19.18;28.85;101443.00;16111409;19;131124;-45
2023/04/15 13:29:54;;;;;;;3.70;0.90;;;;;;;19.18;28.86;101454.09;16105739;19;130325;-44
2023/04/15 13:35:16;;;;;;;7.20;1.15;;;;;;;19.17;28.30;101449.63;16110684;19;130088;-45
2023/04/15 13:40:38;;;;;;;7.82;0.90;;;;;;;19.16;29.04;101464.56;16110281;19;129656;-44
2023/04/15 13:46:00;;;;;;;1.83;0.77;;;;;;;19.16;29.06;101467.34;16110763;19;130362;-45
2023/04/15 13:51:22;;;;;;;2.05;0.80;;;;;;;19.16;28.79;101467.34;16111570;19;130084;-47
2023/04/15 13:56:44;;;;;;;1.95;0.77;;;;;;;19.17;28.77;101485.69;16108305;19;129912;-45
2023/04/15 14:02:06;;;;;;;1.35;0.75;;;;;;;19.17;29.13;101494.00;16106726;19;129638;-48
2023/04/15 14:07:29;;;;;;;5.32;0.98;;;;;;;19.16;29.04;101500.63;16106091;19;130215;-46
2023/04/15 14:12:51;;;;;;;2.70;0.90;;;;;;;19.14;29.47;101513.88;16109002;19;129886;-45
2023/04/15 14:18:13;;;;;;;2.97;1.02;;;;;;;19.12;29.10;101524.38;16124389;19;130356;-45
2023/04/15 14:23:35;;;;;;;4.38;0.77;;;;;;;19.13;29.58;101539.94;16125006;19;129555;-49
2023/04/15 14:28:57;;;;;;;1.67;0.60;;;;;;;19.12;29.16;101538.22;16121575;19;130928;-48
2023/04/15 14:34:21;;;;;;;1.75;0.50;;;;;;;19.11;29.67;101539.31;16116939;19;129973;-45
2023/04/15 14:39:42;;;;;;;5.60;0.80;;;;;;;19.10;29.44;101552.34;16121916;19;130385;-47
2023/04/15 14:45:05;;;;;;;13.93;1.33;;;;;;;19.11;29.48;101558.72;16120747;19;129690;-45
2023/04/15 14:50:27;;;;;;;6.07;0.55;;;;;;;19.14;29.67;101558.25;16121964;19;130454;-45
2023/04/15 14:55:48;;;;;;;12.00;0.70;;;;;;;19.15;29.45;101584.91;16119227;19;131133;-46
2023/04/15 15:01:10;;;;;;;1.85;0.50;;;;;;;19.14;29.47;101577.69;16120408;19;130314;-51
2023/04/15 15:06:33;;;;;;;3.63;0.60;;;;;;;19.13;29.64;101589.84;16118126;19;129601;-46
2023/04/15 15:11:56;;;;;;;5.00;0.80;;;;;;;19.13;29.77;101589.84;16118209;19;129801;-47
2023/04/15 15:17:18;;;;;;;2.50;0.70;;;;;;;19.14;29.81;101586.00;16113039;19;129890;-46
2023/04/15 15:22:40;;;;;;;5.35;0.57;;;;;;;19.16;29.48;101594.94;16115499;19;130089;-47
2023/04/15 15:28:02;;;;;;;3.38;0.65;;;;;;;19.18;29.87;101613.03;16114746;19;131021;-47
2023/04/15 15:33:23;;;;;;;4.38;0.57;;;;;;;19.17;29.90;101619.66;16120230;19;130269;-49
2023/04/15 15:38:45;;;;;;;3.55;0.70;;;;;;;19.16;29.76;101629.06;16115693;19;130671;-44
2023/04/15 15:44:07;;;;;;;12.48;0.85;;;;;;;19.17;29.91;101635.47;16114828;19;130686;-46
2023/04/15 15:49:29;;;;;;;2.03;0.55;;;;;;;19.13;29.61;101654.50;16108699;19;130125;-45
2023/04/15 15:54:51;;;;;;;3.45;0.50;;;;;;;19.10;29.44;101657.72;16118865;19;131492;-44
2023/04/15 16:00:13;;;;;;;3.35;0.60;;;;;;;19.08;29.77;101660.72;16116567;19;130326;-46
2023/04/15 16:05:36;;;;;;;3.17;0.55;;;;;;;19.06;29.38;101668.44;16114279;19;129835;-46
2023/04/15 16:10:58;;;;;;;3.70;0.50;;;;;;;19.02;29.55;101667.19;16106843;19;130641;-46
2023/04/15 16:16:20;;;;;;;8.30;0.95;;;;;;;18.98;29.24;101681.75;16078549;19;130440;-39
2023/04/15 16:21:43;;;;;;;1.98;0.50;;;;;;;18.95;29.58;101694.19;16101848;19;129983;-39
2023/04/15 16:27:05;;;;;;;1.45;0.50;;;;;;;18.94;29.78;101703.56;16112965;19;129849;-39
2023/04/15 16:32:27;;;;;;;3.42;0.60;;;;;;;18.91;29.60;101709.56;16114058;19;133964;-39
2023/04/15 16:37:49;;;;;;;2.22;0.55;;;;;;;18.90;29.42;101714.25;16110363;19;129695;-39
2023/04/15 16:43:11;;;;;;;5.13;0.50;;;;;;;19.10;29.67;101718.75;16099303;19;131702;-46
2023/04/15 16:48:32;;;;;;;3.95;0.60;;;;;;;19.44;29.16;101743.38;16118010;19;131068;-44
2023/04/15 16:53:54;;;;;;;8.77;0.65;;;;;;;19.75;28.94;101738.69;16118489;19;130773;-46
2023/04/15 16:59:16;;;;;;;3.60;0.65;;;;;;;19.98;28.85;101746.28;16125049;19;132308;-51
2023/04/15 17:04:40;;;;;;;5.63;0.52;;;;;;;20.14;28.78;101761.47;16113303;19;129635;-45
2023/04/15 17:10:02;;;;;;;1.23;0.55;;;;;;;20.19;28.53;101769.91;16108470;19;130929;-45
2023/04/15 17:15:25;;;;;;;3.25;0.50;;;;;;;20.18;28.78;101771.03;16111497;19;130352;-43
2023/04/15 17:20:48;;;;;;;1.30;0.40;;;;;;;20.14;29.28;101778.13;16111094;19;129676;-45
2023/04/15 17:26:09;;;;;;;13.63;1.20;;;;;;;20.10;29.35;101782.47;16114182;19;130752;-44
2023/04/15 17:31:31;;;;;;;4.45;0.88;;;;;;;20.04;29.13;101797.31;16110830;19;129606;-44
2023/04/15 17:36:53;;;;;;;7.57;1.10;;;;;;;19.95;29.08;101797.56;16106728;19;130534;-44
2023/04/15 17:42:15;;;;;;;15.00;1.00;;;;;;;19.87;29.58;101803.47;16113568;19;130904;-44
2023/04/15 17:47:37;;;;;;;13.35;1.10;;;;;;;19.79;29.28;101810.19;16108390;19;130779;-44
2023/04/15 17:52:59;;;;;;;6.15;0.88;;;;;;;19.72;29.62;101803.88;16107813;19;132024;-46
2023/04/15 17:58:21;;;;;;;9.43;1.02;;;;;;;19.66;29.51;101813.13;16108881;19;130014;-46
2023/04/15 18:03:46;;;;;;;7.90;0.80;;;;;;;19.59;29.54;101813.19;16111403;19;129783;-47
2023/04/15 18:09:08;;;;;;;2.88;0.70;;;;;;;19.58;29.55;101819.81;16103129;19;129676;-43
2023/04/15 18:14:30;;;;;;;5.40;1.08;;;;;;;19.57;30.05;101828.38;16110316;19;131076;-44
2023/04/15 18:19:55;;;;;;;10.05;0.98;;;;;;;19.55;30.03;101834.19;16104430;19;130367;-44
2023/04/15 18:25:17;;;;;;;9.43;0.82;;;;;;;19.55;30.06;101836.97;16105333;19;129571;-43
2023/04/15 18:30:39;;;;;;;6.10;1.00;;;;;;;19.62;29.95;101848.81;16106135;19;130279;-45
2023/04/15 18:36:01;;;;;;;8.77;1.15;;;;;;;19.86;30.09;101865.63;16105769;19;131560;-43
2023/04/15 18:41:26;;;;;;;8.65;1.02;;;;;;;20.14;29.75;101878.16;16103298;19;129641;-45
2023/04/15 18:46:48;;;;;;;8.47;0.83;;;;;;;20.38;29.93;101881.03;16108365;19;131495;-43
2023/04/15 18:52:11;;;;;;;6.93;1.25;;;;;;;20.53;29.85;101892.59;16104352;19;131078;-51
2023/04/15 18:57:33;;;;;;;6.85;0.98;;;;;;;20.62;30.06;101906.16;16102244;19;131212;-47
2023/04/15 19:02:57;;;;;;;11.30;1.23;;;;;;;20.65;29.82;101927.94;16110675;19;130859;-51
2023/04/15 19:08:19;;;;;;;8.65;1.02;;;;;;;20.60;30.10;101931.41;16116652;19;129997;-50
2023/04/15 19:13:40;;;;;;;10.93;1.23;;;;;;;20.54;29.79;101943.47;16118194;19;129491;-50
2023/04/15 19:19:02;;;;;;;6.30;0.90;;;;;;;20.45;29.87;101943.78;16109786;19;130690;-51
2023/04/15 19:24:25;;;;;;;5.20;1.00;;;;;;;20.38;29.83;101958.84;16113879;19;131197;-51
2023/04/15 19:29:47;;;;;;;7.75;1.08;;;;;;;20.28;30.38;101968.59;16117697;19;129736;-48
2023/04/15 19:35:09;;;;;;;4.20;1.13;;;;;;;20.18;30.00;101973.84;16114900;19;131147;-49
2023/04/15 19:40:32;;;;;;;9.98;1.20;;;;;;;20.07;30.62;101977.38;16117698;19;130128;-51
2023/04/15 19:45:54;;;;;;;6.70;0.80;;;;;;;20.01;30.09;101970.81;16114324;19;130371;-51
2023/04/15 19:51:16;;;;;;;11.27;1.13;;;;;;;19.95;30.66;101980.88;16121732;19;131529;-51
2023/04/15 19:56:38;;;;;;;10.82;1.45;;;;;;;19.96;31.25;101995.63;16113573;19;130335;-50
2023/04/15 20:02:00;;;;;;;12.57;1.58;;;;;;;19.92;31.54;102003.59;16116897;19;129803;-47
2023/04/15 20:07:22;;;;;;;9.15;1.38;;;;;;;19.89;31.59;102006.81;16115990;19;130506;-48
2023/04/15 20:12:43;;;;;;;8.82;1.20;;;;;;;19.88;32.01;102002.34;16118641;19;131802;-45
2023/04/15 20:18:12;;;;;;;18.77;1.23;;;;;;;19.86;32.29;102012.81;16117205;19;129538;-43
2023/04/15 20:23:34;;;;;;;7.15;1.20;;;;;;;19.91;32.26;102018.53;16118636;19;129986;-44
2023/04/15 20:28:58;;;;;;;7.90;1.30;;;;;;;20.04;32.21;102025.06;16111013;19;131558;-45
2023/04/15 20:34:20;;;;;;;16.55;1.38;;;;;;;20.16;31.80;102031.56;16113926;19;130602;-47
2023/04/15 20:39:41;;;;;;;5.95;1.30;;;;;;;20.26;31.38;102026.34;16115573;19;129203;-42
2023/04/15 20:45:05;;;;;;;10.13;1.55;;;;;;;20.31;31.60;102033.13;16113974;19;129518;-43
2023/04/15 20:50:27;;;;;;;7.63;1.20;;;;;;;20.31;31.12;102033.13;16121287;19;135208;-44
2023/04/15 20:55:49;;;;;;;6.75;1.10;;;;;;;20.23;31.36;102043.47;16113377;19;131196;-44
2023/04/15 21:01:12;;;;;;;6.95;1.00;;;;;;;20.18;30.96;102045.22;16113460;19;129753;-42
2023/04/15 21:06:34;;;;;;;6.57;1.05;;;;;;;20.12;31.44;102045.06;16114313;19;129845;-41
2023/04/15 21:11:56;;;;;;;7.03;1.02;;;;;;;20.07;31.35;102050.47;16108865;19;130855;-43
2023/04/15 21:17:22;;;;;;;6.15;0.80;;;;;;;20.01;31.44;102051.38;16117030;19;129611;-41
2023/04/15 21:22:44;;;;;;;2.67;0.98;;;;;;;19.93;31.38;102046.94;16111908;19;130770;-46
2023/04/15 21:28:06;;;;;;;4.10;0.90;;;;;;;19.87;31.33;102056.16;16113170;19;130415;-44
2023/04/15 21:33:28;;;;;;;6.43;1.05;;;;;;;19.80;31.40;102060.94;16109595;19;130284;-43
2023/04/15 21:38:49;;;;;;;3.97;1.13;;;;;;;19.75;31.46;102069.09;16115502;19;130334;-42
2023/04/15 21:44:11;;;;;;;4.75;0.80;;;;;;;19.67;31.25;102062.75;16112018;19;130766;-44
2023/04/15 21:49:35;;;;;;;3.90;1.05;;;;;;;19.61;31.29;102071.13;16112785;19;130456;-43
2023/04/15 21:54:57;;;;;;;3.50;1.17;;;;;;;19.55;31.49;102080.34;16110206;19;130229;-45
2023/04/15 22:00:20;;;;;;;5.10;0.77;;;;;;;19.52;31.10;102087.19;16111708;19;129842;-43
2023/04/15 22:05:44;;;;;;;2.97;0.70;;;;;;;19.47;31.32;102089.78;16107770;19;130042;-43
2023/04/15 22:11:07;;;;;;;5.22;0.90;;;;;;;19.45;31.37;102094.69;16113830;19;129924;-43
2023/04/15 22:16:29;;;;;;;2.40;0.80;;;;;;;19.42;31.44;102100.72;16110969;19;130887;-43
2023/04/15 22:21:51;;;;;;;2.88;0.90;;;;;;;19.37;31.46;102110.56;16111098;19;129387;-44
2023/04/15 22:27:12;;;;;;;2.63;0.80;;;;;;;19.35;31.46;102112.69;16109825;19;130682;-44
2023/04/15 22:32:34;;;;;;;4.53;0.77;;;;;;;19.32;31.70;102115.91;16109082;19;129335;-42
2023/04/15 22:37:56;;;;;;;4.50;0.88;;;;;;;19.27;31.70;102107.41;16122710;19;132098;-44
2023/04/15 22:43:18;;;;;;;3.05;0.80;;;;;;;19.24;31.25;102126.44;16124666;19;129419;-44
2023/04/15 22:48:41;;;;;;;3.67;0.60;;;;;;;19.21;31.51;102122.16;16125000;19;130744;-45
2023/04/15 22:54:03;;;;;;;2.83;0.60;;;;;;;19.17;31.30;102134.75;16122447;19;129353;-43
2023/04/15 22:59:26;;;;;;;3.08;0.70;;;;;;;19.15;31.52;102126.63;16125193;19;131556;-42
2023/04/15 23:04:47;;;;;;;1.45;0.63;;;;;;;19.12;31.69;102142.88;16123144;19;129796;-43
2023/04/15 23:10:10;;;;;;;2.88;0.70;;;;;;;19.10;31.42;102143.13;16122208;19;130297;-43
2023/04/15 23:15:32;;;;;;;2.95;0.60;;;;;;;19.07;31.59;102151.88;16124071;19;130498;-44
2023/04/15 23:20:55;;;;;;;1.90;0.50;;;;;;;19.05;31.72;102146.56;16124756;19;131144;-46
2023/04/15 23:26:17;;;;;;;5.32;0.70;;;;;;;19.04;31.46;102149.53;16121663;19;129781;-44
2023/04/15 23:31:40;;;;;;;3.38;0.52;;;;;;;19.01;31.62;102150.81;16119985;19;132303;-43
2023/04/15 23:37:02;;;;;;;3.78;0.73;;;;;;;19.00;31.34;102154.66;16119748;19;130286;-42
2023/04/15 23:42:24;;;;;;;4.70;0.70;;;;;;;18.98;31.82;102159.56;16119872;19;129934;-42
2023/04/15 23:47:46;;;;;;;3.85;1.13;;;;;;;18.96;31.41;102153.38;16119903;19;129507;-44
2023/04/15 23:53:08;;;;;;;3.28;0.80;;;;;;;18.94;31.48;102155.56;16120298;19;131211;-47
2023/04/15 23:58:30;;;;;;;3.35;0.73;;;;;;;18.93;31.78;102151.06;16119323;19;131939;-43
